Fort Seneca, Ohio
Current Conditions -  °F | °C
As of 1:53 PM on Monday 20 Oct 2014 (Local Time) from KFDY Reporting Station
Moderate Rain Moderate Rain  
Wind Chill: 53°   Ceiling: 1900
Heat Index: 53°   Visibility: 1.7mi
Dew Point: 49°   Wind: 5mph
Humidity: 86%   Direction: 240°WSW
Pressure: 29.84"   Gusts: NA
Location:  41.154°N, 83.2212°W
Report Text: KFDY 201753Z AUTO 24004KT 1 3/4SM RA BR BKN019 BKN026 OVC050 12/09 A2984 RMK AO2 RAB19 SLP103 P0009 60011 T01170094 10139 20094 56012
Loading
Personal Weather Stations






























Interactive Weather Map
Tropical Storm Tracking
New forecast layout! Learn more

10-Day Weather Forecast

Advertisements
Track Severe Weather on mobile